sensor_id;sensor_type;location;lat;lon;timestamp;pressure;altitude;pressure_sealevel;temperature;humidity
46015;BME280;36844;51.898;-0.874;2023-05-21T00:00:38;101246.38;;;19.27;
46015;BME280;36844;51.898;-0.874;2023-05-21T00:03:03;101238.25;;;19.27;
46015;BME280;36844;51.898;-0.874;2023-05-21T00:05:29;101244.84;;;19.26;
46015;BME280;36844;51.898;-0.874;2023-05-21T00:07:55;101235.94;;;19.25;
46015;BME280;36844;51.898;-0.874;2023-05-21T00:10:20;101236.34;;;19.24;
46015;BME280;36844;51.898;-0.874;2023-05-21T00:12:45;101242.50;;;19.24;
46015;BME280;36844;51.898;-0.874;2023-05-21T00:15:11;101232.84;;;19.23;
46015;BME280;36844;51.898;-0.874;2023-05-21T00:17:36;101229.38;;;19.23;
46015;BME280;36844;51.898;-0.874;2023-05-21T00:20:02;101221.66;;;19.21;
46015;BME280;36844;51.898;-0.874;2023-05-21T00:22:31;101222.81;;;19.20;
46015;BME280;36844;51.898;-0.874;2023-05-21T00:24:57;101226.28;;;19.21;
46015;BME280;36844;51.898;-0.874;2023-05-21T00:27:22;101223.56;;;19.21;
46015;BME280;36844;51.898;-0.874;2023-05-21T00:29:47;101224.00;;;19.19;
46015;BME280;36844;51.898;-0.874;2023-05-21T00:32:13;101211.63;;;19.18;
46015;BME280;36844;51.898;-0.874;2023-05-21T00:34:38;101224.34;;;19.18;
46015;BME280;36844;51.898;-0.874;2023-05-21T00:37:03;101227.84;;;19.18;
46015;BME280;36844;51.898;-0.874;2023-05-21T00:39:28;101228.97;;;19.17;
46015;BME280;36844;51.898;-0.874;2023-05-21T00:41:54;101232.09;;;19.16;
46015;BME280;36844;51.898;-0.874;2023-05-21T00:44:20;101234.03;;;19.15;
46015;BME280;36844;51.898;-0.874;2023-05-21T00:46:46;101229.41;;;19.16;
46015;BME280;36844;51.898;-0.874;2023-05-21T00:49:12;101221.66;;;19.14;
46015;BME280;36844;51.898;-0.874;2023-05-21T00:51:38;101218.19;;;19.14;
46015;BME280;36844;51.898;-0.874;2023-05-21T00:54:04;101217.41;;;19.13;
46015;BME280;36844;51.898;-0.874;2023-05-21T00:56:29;101217.81;;;19.12;
46015;BME280;36844;51.898;-0.874;2023-05-21T00:58:55;101207.78;;;19.12;
46015;BME280;36844;51.898;-0.874;2023-05-21T01:01:23;101217.03;;;19.11;
46015;BME280;36844;51.898;-0.874;2023-05-21T01:03:57;101217.03;;;19.11;
46015;BME280;36844;51.898;-0.874;2023-05-21T01:06:25;101210.06;;;19.10;
46015;BME280;36844;51.898;-0.874;2023-05-21T01:08:51;101212.00;;;19.10;
46015;BME280;36844;51.898;-0.874;2023-05-21T01:11:16;101208.50;;;19.09;
46015;BME280;36844;51.898;-0.874;2023-05-21T01:13:42;101210.84;;;19.07;
46015;BME280;36844;51.898;-0.874;2023-05-21T01:16:08;101211.63;;;19.08;
46015;BME280;36844;51.898;-0.874;2023-05-21T01:18:34;101213.56;;;19.07;
46015;BME280;36844;51.898;-0.874;2023-05-21T01:21:01;101218.16;;;19.07;
46015;BME280;36844;51.898;-0.874;2023-05-21T01:23:27;101216.25;;;19.07;
46015;BME280;36844;51.898;-0.874;2023-05-21T01:25:52;101226.66;;;19.05;
46015;BME280;36844;51.898;-0.874;2023-05-21T01:28:18;101222.44;;;19.04;
46015;BME280;36844;51.898;-0.874;2023-05-21T01:30:43;101221.66;;;19.04;
46015;BME280;36844;51.898;-0.874;2023-05-21T01:38:24;101232.06;;;19.02;
46015;BME280;36844;51.898;-0.874;2023-05-21T01:40:57;101236.69;;;19.01;
46015;BME280;36844;51.898;-0.874;2023-05-21T01:43:27;101237.06;;;19.00;
46015;BME280;36844;51.898;-0.874;2023-05-21T01:45:53;101228.97;;;19.00;
46015;BME280;36844;51.898;-0.874;2023-05-21T01:48:19;101238.97;;;18.99;
46015;BME280;36844;51.898;-0.874;2023-05-21T01:50:46;101233.59;;;18.99;
46015;BME280;36844;51.898;-0.874;2023-05-21T01:53:11;101234.75;;;18.98;
46015;BME280;36844;51.898;-0.874;2023-05-21T01:55:37;101225.13;;;18.97;
46015;BME280;36844;51.898;-0.874;2023-05-21T01:58:05;101220.88;;;18.96;
46015;BME280;36844;51.898;-0.874;2023-05-21T02:00:31;101212.75;;;18.96;
46015;BME280;36844;51.898;-0.874;2023-05-21T02:02:56;101211.97;;;18.96;
46015;BME280;36844;51.898;-0.874;2023-05-21T02:05:22;101209.66;;;18.94;
46015;BME280;36844;51.898;-0.874;2023-05-21T02:07:48;101213.16;;;18.95;
46015;BME280;36844;51.898;-0.874;2023-05-21T02:10:14;101206.19;;;18.94;
46015;BME280;36844;51.898;-0.874;2023-05-21T02:12:40;101206.19;;;18.94;
46015;BME280;36844;51.898;-0.874;2023-05-21T02:15:05;101205.44;;;18.93;
46015;BME280;36844;51.898;-0.874;2023-05-21T02:17:31;101210.06;;;18.93;
46015;BME280;36844;51.898;-0.874;2023-05-21T02:19:58;101213.91;;;18.92;
46015;BME280;36844;51.898;-0.874;2023-05-21T02:22:31;101207.75;;;18.91;
46015;BME280;36844;51.898;-0.874;2023-05-21T02:24:56;101210.81;;;18.90;
46015;BME280;36844;51.898;-0.874;2023-05-21T02:27:21;101208.09;;;18.90;
46015;BME280;36844;51.898;-0.874;2023-05-21T02:29:47;101204.66;;;18.89;
46015;BME280;36844;51.898;-0.874;2023-05-21T02:32:12;101196.16;;;18.87;
46015;BME280;36844;51.898;-0.874;2023-05-21T02:34:37;101196.16;;;18.87;
46015;BME280;36844;51.898;-0.874;2023-05-21T02:37:06;101201.56;;;18.87;
46015;BME280;36844;51.898;-0.874;2023-05-21T02:39:31;101198.09;;;18.87;
46015;BME280;36844;51.898;-0.874;2023-05-21T02:41:56;101201.94;;;18.86;
46015;BME280;36844;51.898;-0.874;2023-05-21T02:44:21;101199.25;;;18.86;
46015;BME280;36844;51.898;-0.874;2023-05-21T02:46:48;101197.69;;;18.85;
46015;BME280;36844;51.898;-0.874;2023-05-21T02:49:13;101196.94;;;18.84;
46015;BME280;36844;51.898;-0.874;2023-05-21T02:51:38;101188.06;;;18.84;
46015;BME280;36844;51.898;-0.874;2023-05-21T02:54:03;101193.81;;;18.82;
46015;BME280;36844;51.898;-0.874;2023-05-21T02:56:28;101181.50;;;18.81;
46015;BME280;36844;51.898;-0.874;2023-05-21T02:58:54;101191.13;;;18.82;
46015;BME280;36844;51.898;-0.874;2023-05-21T03:01:19;101195.00;;;18.81;
46015;BME280;36844;51.898;-0.874;2023-05-21T03:03:44;101184.22;;;18.81;
46015;BME280;36844;51.898;-0.874;2023-05-21T03:06:09;101196.16;;;18.80;
46015;BME280;36844;51.898;-0.874;2023-05-21T03:08:35;101204.25;;;18.80;
46015;BME280;36844;51.898;-0.874;2023-05-21T03:11:01;101197.28;;;18.79;
46015;BME280;36844;51.898;-0.874;2023-05-21T03:13:26;101203.06;;;18.77;
46015;BME280;36844;51.898;-0.874;2023-05-21T03:15:51;101195.75;;;18.78;
46015;BME280;36844;51.898;-0.874;2023-05-21T03:18:20;101199.63;;;18.77;
46015;BME280;36844;51.898;-0.874;2023-05-21T03:20:45;101206.94;;;18.77;
46015;BME280;36844;51.898;-0.874;2023-05-21T03:23:10;101204.25;;;18.77;
46015;BME280;36844;51.898;-0.874;2023-05-21T03:25:36;101196.50;;;18.75;
46015;BME280;36844;51.898;-0.874;2023-05-21T03:28:02;101203.81;;;18.74;
46015;BME280;36844;51.898;-0.874;2023-05-21T03:30:27;101195.00;;;18.74;
46015;BME280;36844;51.898;-0.874;2023-05-21T03:32:52;101188.03;;;18.73;
46015;BME280;36844;51.898;-0.874;2023-05-21T03:35:17;101192.66;;;18.72;
46015;BME280;36844;51.898;-0.874;2023-05-21T03:37:42;101197.28;;;18.72;
46015;BME280;36844;51.898;-0.874;2023-05-21T03:40:08;101201.13;;;18.71;
46015;BME280;36844;51.898;-0.874;2023-05-21T03:42:33;101192.22;;;18.70;
46015;BME280;36844;51.898;-0.874;2023-05-21T03:44:58;101194.22;;;18.70;
46015;BME280;36844;51.898;-0.874;2023-05-21T03:47:23;101196.13;;;18.69;
46015;BME280;36844;51.898;-0.874;2023-05-21T03:49:49;101191.88;;;18.68;
46015;BME280;36844;51.898;-0.874;2023-05-21T03:52:14;101193.00;;;18.67;
46015;BME280;36844;51.898;-0.874;2023-05-21T03:54:39;101193.78;;;18.68;
46015;BME280;36844;51.898;-0.874;2023-05-21T03:57:05;101189.53;;;18.67;
46015;BME280;36844;51.898;-0.874;2023-05-21T03:59:30;101192.22;;;18.67;
46015;BME280;36844;51.898;-0.874;2023-05-21T04:01:55;101189.56;;;18.63;
46015;BME280;36844;51.898;-0.874;2023-05-21T04:04:20;101189.94;;;18.65;
46015;BME280;36844;51.898;-0.874;2023-05-21T04:06:45;101190.72;;;18.66;
46015;BME280;36844;51.898;-0.874;2023-05-21T04:09:12;101193.78;;;18.64;
46015;BME280;36844;51.898;-0.874;2023-05-21T04:11:37;101192.66;;;18.65;
46015;BME280;36844;51.898;-0.874;2023-05-21T04:14:02;101193.00;;;18.64;
46015;BME280;36844;51.898;-0.874;2023-05-21T04:16:27;101192.25;;;18.63;
46015;BME280;36844;51.898;-0.874;2023-05-21T04:18:53;101189.56;;;18.63;
46015;BME280;36844;51.898;-0.874;2023-05-21T04:21:19;101191.47;;;18.63;
46015;BME280;36844;51.898;-0.874;2023-05-21T04:23:45;101188.78;;;18.63;
46015;BME280;36844;51.898;-0.874;2023-05-21T04:26:10;101191.47;;;18.63;
46015;BME280;36844;51.898;-0.874;2023-05-21T04:28:36;101187.25;;;18.62;
46015;BME280;36844;51.898;-0.874;2023-05-21T04:31:01;101187.59;;;18.60;
46015;BME280;36844;51.898;-0.874;2023-05-21T04:33:27;101187.59;;;18.60;
46015;BME280;36844;51.898;-0.874;2023-05-21T04:35:52;101192.22;;;18.60;
46015;BME280;36844;51.898;-0.874;2023-05-21T04:38:17;101197.59;;;18.60;
46015;BME280;36844;51.898;-0.874;2023-05-21T04:40:45;101196.06;;;18.59;
46015;BME280;36844;51.898;-0.874;2023-05-21T04:43:10;101194.53;;;18.58;
46015;BME280;36844;51.898;-0.874;2023-05-21T04:45:35;101193.78;;;18.57;
46015;BME280;36844;51.898;-0.874;2023-05-21T04:48:00;101191.84;;;18.58;
46015;BME280;36844;51.898;-0.874;2023-05-21T04:50:26;101192.97;;;18.57;
46015;BME280;36844;51.898;-0.874;2023-05-21T04:52:54;101187.59;;;18.57;
46015;BME280;36844;51.898;-0.874;2023-05-21T04:55:19;101180.66;;;18.56;
46015;BME280;36844;51.898;-0.874;2023-05-21T04:57:45;101180.66;;;18.56;
46015;BME280;36844;51.898;-0.874;2023-05-21T05:00:10;101182.59;;;18.55;
46015;BME280;36844;51.898;-0.874;2023-05-21T05:02:36;101182.59;;;18.55;
46015;BME280;36844;51.898;-0.874;2023-05-21T05:05:01;101184.53;;;18.55;
46015;BME280;36844;51.898;-0.874;2023-05-21T05:07:26;101180.25;;;18.54;
46015;BME280;36844;51.898;-0.874;2023-05-21T05:09:52;101192.19;;;18.53;
46015;BME280;36844;51.898;-0.874;2023-05-21T05:12:17;101185.66;;;18.54;
46015;BME280;36844;51.898;-0.874;2023-05-21T05:14:42;101186.81;;;18.53;
46015;BME280;36844;51.898;-0.874;2023-05-21T05:17:07;101184.09;;;18.53;
46015;BME280;36844;51.898;-0.874;2023-05-21T05:19:34;101184.09;;;18.53;
46015;BME280;36844;51.898;-0.874;2023-05-21T05:21:59;101192.19;;;18.53;
46015;BME280;36844;51.898;-0.874;2023-05-21T05:24:24;101179.88;;;18.52;
46015;BME280;36844;51.898;-0.874;2023-05-21T05:26:49;101179.88;;;18.52;
46015;BME280;36844;51.898;-0.874;2023-05-21T05:29:14;101171.78;;;18.52;
46015;BME280;36844;51.898;-0.874;2023-05-21T05:31:40;101174.47;;;18.52;
46015;BME280;36844;51.898;-0.874;2023-05-21T05:34:05;101164.47;;;18.52;
46015;BME280;36844;51.898;-0.874;2023-05-21T05:36:30;101165.22;;;18.53;
46015;BME280;36844;51.898;-0.874;2023-05-21T05:38:56;101168.69;;;18.53;
46015;BME280;36844;51.898;-0.874;2023-05-21T05:41:21;101162.53;;;18.53;
46015;BME280;36844;51.898;-0.874;2023-05-21T05:43:46;101154.44;;;18.53;
46015;BME280;36844;51.898;-0.874;2023-05-21T05:46:12;101160.25;;;18.55;
46015;BME280;36844;51.898;-0.874;2023-05-21T05:48:37;101160.25;;;18.55;
46015;BME280;36844;51.898;-0.874;2023-05-21T05:51:02;101159.81;;;18.56;
46015;BME280;36844;51.898;-0.874;2023-05-21T05:53:27;101159.81;;;18.56;
46015;BME280;36844;51.898;-0.874;2023-05-21T05:55:53;101172.56;;;18.59;
46015;BME280;36844;51.898;-0.874;2023-05-21T05:58:18;101163.69;;;18.59;
46015;BME280;36844;51.898;-0.874;2023-05-21T06:00:43;101159.47;;;18.61;
46015;BME280;36844;51.898;-0.874;2023-05-21T06:03:08;101169.88;;;18.63;
46015;BME280;36844;51.898;-0.874;2023-05-21T06:05:33;101186.47;;;18.65;
46015;BME280;36844;51.898;-0.874;2023-05-21T06:07:59;101180.69;;;18.63;
46015;BME280;36844;51.898;-0.874;2023-05-21T06:10:24;101168.72;;;18.64;
46015;BME280;36844;51.898;-0.874;2023-05-21T06:12:49;101172.97;;;18.65;
46015;BME280;36844;51.898;-0.874;2023-05-21T06:15:14;101170.63;;;18.67;
46015;BME280;36844;51.898;-0.874;2023-05-21T06:17:40;101166.81;;;18.68;
46015;BME280;36844;51.898;-0.874;2023-05-21T06:20:07;101178.38;;;18.68;
46015;BME280;36844;51.898;-0.874;2023-05-21T06:22:33;101180.72;;;18.70;
46015;BME280;36844;51.898;-0.874;2023-05-21T06:24:58;101179.53;;;18.71;
46015;BME280;36844;51.898;-0.874;2023-05-21T06:27:23;101183.78;;;18.72;
46015;BME280;36844;51.898;-0.874;2023-05-21T06:29:48;101184.56;;;18.72;
46015;BME280;36844;51.898;-0.874;2023-05-21T06:32:13;101184.22;;;18.74;
46015;BME280;36844;51.898;-0.874;2023-05-21T06:34:39;101185.72;;;18.75;
46015;BME280;36844;51.898;-0.874;2023-05-21T06:37:04;101178.38;;;18.75;
46015;BME280;36844;51.898;-0.874;2023-05-21T06:39:30;101179.16;;;18.76;
46015;BME280;36844;51.898;-0.874;2023-05-21T06:41:55;101181.47;;;18.77;
46015;BME280;36844;51.898;-0.874;2023-05-21T06:44:20;101177.25;;;18.77;
46015;BME280;36844;51.898;-0.874;2023-05-21T06:46:46;101179.56;;;18.78;
46015;BME280;36844;51.898;-0.874;2023-05-21T06:49:11;101172.22;;;18.78;
46015;BME280;36844;51.898;-0.874;2023-05-21T06:51:37;101174.16;;;18.78;
46015;BME280;36844;51.898;-0.874;2023-05-21T06:54:02;101176.88;;;18.78;
46015;BME280;36844;51.898;-0.874;2023-05-21T06:56:28;101183.00;;;18.78;
46015;BME280;36844;51.898;-0.874;2023-05-21T06:58:53;101183.78;;;18.79;
46015;BME280;36844;51.898;-0.874;2023-05-21T07:01:18;101180.31;;;18.78;
46015;BME280;36844;51.898;-0.874;2023-05-21T07:03:44;101179.97;;;18.80;
46015;BME280;36844;51.898;-0.874;2023-05-21T07:06:09;101175.69;;;18.79;
46015;BME280;36844;51.898;-0.874;2023-05-21T07:08:34;101168.38;;;18.80;
46015;BME280;36844;51.898;-0.874;2023-05-21T07:11:00;101173.00;;;18.79;
46015;BME280;36844;51.898;-0.874;2023-05-21T07:13:25;101180.75;;;18.81;
46015;BME280;36844;51.898;-0.874;2023-05-21T07:15:50;101168.38;;;18.80;
46015;BME280;36844;51.898;-0.874;2023-05-21T07:18:15;101178.03;;;18.81;
46015;BME280;36844;51.898;-0.874;2023-05-21T07:20:41;101170.72;;;18.81;
46015;BME280;36844;51.898;-0.874;2023-05-21T07:23:06;101175.34;;;18.81;
46015;BME280;36844;51.898;-0.874;2023-05-21T07:25:31;101180.31;;;18.82;
46015;BME280;36844;51.898;-0.874;2023-05-21T07:27:56;101171.47;;;18.82;
46015;BME280;36844;51.898;-0.874;2023-05-21T07:30:21;101177.63;;;18.82;
46015;BME280;36844;51.898;-0.874;2023-05-21T07:32:47;101178.41;;;18.83;
46015;BME280;36844;51.898;-0.874;2023-05-21T07:35:12;101177.63;;;18.82;
46015;BME280;36844;51.898;-0.874;2023-05-21T07:37:37;101177.25;;;18.84;
46015;BME280;36844;51.898;-0.874;2023-05-21T07:40:02;101178.78;;;18.85;
46015;BME280;36844;51.898;-0.874;2023-05-21T07:42:28;101169.94;;;18.84;
46015;BME280;36844;51.898;-0.874;2023-05-21T07:44:53;101171.47;;;18.85;
46015;BME280;36844;51.898;-0.874;2023-05-21T07:47:19;101171.47;;;18.85;
46015;BME280;36844;51.898;-0.874;2023-05-21T07:49:44;101179.97;;;18.87;
46015;BME280;36844;51.898;-0.874;2023-05-21T07:52:09;101172.25;;;18.86;
46015;BME280;36844;51.898;-0.874;2023-05-21T07:54:34;101179.97;;;18.87;
46015;BME280;36844;51.898;-0.874;2023-05-21T07:57:00;101178.78;;;18.88;
46015;BME280;36844;51.898;-0.874;2023-05-21T07:59:26;101176.09;;;18.88;
46015;BME280;36844;51.898;-0.874;2023-05-21T08:01:52;101181.88;;;18.90;
46015;BME280;36844;51.898;-0.874;2023-05-21T08:04:17;101176.09;;;18.92;
46015;BME280;36844;51.898;-0.874;2023-05-21T08:06:42;101180.75;;;18.91;
46015;BME280;36844;51.898;-0.874;2023-05-21T08:09:08;101182.28;;;18.92;
46015;BME280;36844;51.898;-0.874;2023-05-21T08:11:33;101176.50;;;18.94;
46015;BME280;36844;51.898;-0.874;2023-05-21T08:13:58;101171.88;;;18.94;
46015;BME280;36844;51.898;-0.874;2023-05-21T08:16:24;101166.47;;;18.94;
46015;BME280;36844;51.898;-0.874;2023-05-21T08:18:49;101166.09;;;18.96;
46015;BME280;36844;51.898;-0.874;2023-05-21T08:21:14;101171.47;;;18.96;
46015;BME280;36844;51.898;-0.874;2023-05-21T08:23:41;101166.88;;;18.96;
46015;BME280;36844;51.898;-0.874;2023-05-21T08:26:06;101157.63;;;18.97;
46015;BME280;36844;51.898;-0.874;2023-05-21T08:28:32;101153.75;;;18.98;
46015;BME280;36844;51.898;-0.874;2023-05-21T08:30:59;101151.81;;;18.99;
46015;BME280;36844;51.898;-0.874;2023-05-21T08:33:24;101154.16;;;19.00;
46015;BME280;36844;51.898;-0.874;2023-05-21T08:35:50;101166.47;;;19.01;
46015;BME280;36844;51.898;-0.874;2023-05-21T08:38:15;101174.56;;;19.01;
46015;BME280;36844;51.898;-0.874;2023-05-21T08:40:41;101168.00;;;19.02;
46015;BME280;36844;51.898;-0.874;2023-05-21T08:43:06;101162.59;;;19.02;
46015;BME280;36844;51.898;-0.874;2023-05-21T08:45:37;101162.59;;;19.02;
46015;BME280;36844;51.898;-0.874;2023-05-21T08:48:05;101173.03;;;19.04;
46015;BME280;36844;51.898;-0.874;2023-05-21T08:50:30;101172.25;;;19.03;
46015;BME280;36844;51.898;-0.874;2023-05-21T08:52:56;101171.13;;;19.04;
46015;BME280;36844;51.898;-0.874;2023-05-21T08:55:23;101168.78;;;19.06;
46015;BME280;36844;51.898;-0.874;2023-05-21T08:57:48;101166.88;;;19.07;
46015;BME280;36844;51.898;-0.874;2023-05-21T09:00:14;101173.03;;;19.07;
46015;BME280;36844;51.898;-0.874;2023-05-21T09:02:39;101174.59;;;19.08;
46015;BME280;36844;51.898;-0.874;2023-05-21T09:05:07;101174.19;;;19.10;
46015;BME280;36844;51.898;-0.874;2023-05-21T09:07:33;101184.63;;;19.11;
46015;BME280;36844;51.898;-0.874;2023-05-21T09:10:07;101173.81;;;19.11;
46015;BME280;36844;51.898;-0.874;2023-05-21T09:12:36;101172.69;;;19.12;
46015;BME280;36844;51.898;-0.874;2023-05-21T09:15:01;101165.31;;;19.13;
46015;BME280;36844;51.898;-0.874;2023-05-21T09:17:27;101178.44;;;19.14;
46015;BME280;36844;51.898;-0.874;2023-05-21T09:20:05;101171.13;;;19.15;
46015;BME280;36844;51.898;-0.874;2023-05-21T09:22:35;101173.81;;;19.15;
46015;BME280;36844;51.898;-0.874;2023-05-21T09:25:03;101176.13;;;19.16;
46015;BME280;36844;51.898;-0.874;2023-05-21T09:27:28;101163.38;;;19.17;
46015;BME280;36844;51.898;-0.874;2023-05-21T09:29:53;101170.34;;;19.18;
46015;BME280;36844;51.898;-0.874;2023-05-21T09:32:18;101164.59;;;19.19;
46015;BME280;36844;51.898;-0.874;2023-05-21T09:34:44;101157.22;;;19.20;
46015;BME280;36844;51.898;-0.874;2023-05-21T09:37:09;101166.88;;;19.21;
46015;BME280;36844;51.898;-0.874;2023-05-21T09:39:34;101158.41;;;19.22;
46015;BME280;36844;51.898;-0.874;2023-05-21T09:42:00;101154.91;;;19.22;
46015;BME280;36844;51.898;-0.874;2023-05-21T09:44:25;101146.44;;;19.23;
46015;BME280;36844;51.898;-0.874;2023-05-21T09:46:51;101152.59;;;19.24;
46015;BME280;36844;51.898;-0.874;2023-05-21T09:49:22;101151.81;;;19.23;
46015;BME280;36844;51.898;-0.874;2023-05-21T09:51:55;101145.63;;;19.23;
46015;BME280;36844;51.898;-0.874;2023-05-21T09:54:21;101151.81;;;19.23;
46015;BME280;36844;51.898;-0.874;2023-05-21T09:56:46;101146.81;;;19.22;
46015;BME280;36844;51.898;-0.874;2023-05-21T09:59:11;101148.72;;;19.21;
46015;BME280;36844;51.898;-0.874;2023-05-21T10:01:37;101151.44;;;19.21;
46015;BME280;36844;51.898;-0.874;2023-05-21T10:04:05;101147.97;;;19.21;
46015;BME280;36844;51.898;-0.874;2023-05-21T10:06:31;101141.81;;;19.20;
46015;BME280;36844;51.898;-0.874;2023-05-21T10:09:02;101144.13;;;19.18;
46015;BME280;36844;51.898;-0.874;2023-05-21T10:11:31;101145.25;;;19.17;
46015;BME280;36844;51.898;-0.874;2023-05-21T10:14:03;101149.88;;;19.17;
46015;BME280;36844;51.898;-0.874;2023-05-21T10:16:29;101145.69;;;19.16;
46015;BME280;36844;51.898;-0.874;2023-05-21T10:18:56;101142.19;;;19.15;
46015;BME280;36844;51.898;-0.874;2023-05-21T10:21:22;101127.91;;;19.15;
46015;BME280;36844;51.898;-0.874;2023-05-21T10:23:48;101129.84;;;19.14;
46015;BME280;36844;51.898;-0.874;2023-05-21T10:26:14;101136.38;;;19.13;
46015;BME280;36844;51.898;-0.874;2023-05-21T10:28:40;101138.31;;;19.13;
46015;BME280;36844;51.898;-0.874;2023-05-21T10:31:06;101147.19;;;19.13;
46015;BME280;36844;51.898;-0.874;2023-05-21T10:33:31;101155.28;;;19.13;
46015;BME280;36844;51.898;-0.874;2023-05-21T10:35:58;101139.06;;;19.13;
46015;BME280;36844;51.898;-0.874;2023-05-21T10:38:23;101141.00;;;19.13;
46015;BME280;36844;51.898;-0.874;2023-05-21T10:40:49;101140.28;;;19.12;
46015;BME280;36844;51.898;-0.874;2023-05-21T11:01:15;101128.28;;;19.13;
46015;BME280;36844;51.898;-0.874;2023-05-21T11:03:43;101120.94;;;19.14;
46015;BME280;36844;51.898;-0.874;2023-05-21T11:06:08;101121.75;;;19.14;
46015;BME280;36844;51.898;-0.874;2023-05-21T11:08:35;101119.41;;;19.16;
46015;BME280;36844;51.898;-0.874;2023-05-21T11:11:01;101117.47;;;19.17;
46015;BME280;36844;51.898;-0.874;2023-05-21T11:13:27;101112.06;;;19.17;
46015;BME280;36844;51.898;-0.874;2023-05-21T11:21:05;101110.56;;;19.19;
46015;BME280;36844;51.898;-0.874;2023-05-21T11:26:15;101106.69;;;19.20;
46015;BME280;36844;51.898;-0.874;2023-05-21T11:28:40;101105.13;;;19.23;
46015;BME280;36844;51.898;-0.874;2023-05-21T11:31:21;101111.31;;;19.23;
46015;BME280;36844;51.898;-0.874;2023-05-21T11:33:47;101104.75;;;19.24;
46015;BME280;36844;51.898;-0.874;2023-05-21T11:36:12;101101.28;;;19.24;
46015;BME280;36844;51.898;-0.874;2023-05-21T11:38:38;101101.66;;;19.26;
46015;BME280;36844;51.898;-0.874;2023-05-21T11:41:03;101104.38;;;19.26;
46015;BME280;36844;51.898;-0.874;2023-05-21T11:43:28;101100.91;;;19.25;
46015;BME280;36844;51.898;-0.874;2023-05-21T11:45:54;101094.34;;;19.26;
46015;BME280;36844;51.898;-0.874;2023-05-21T11:48:25;101098.59;;;19.27;
46015;BME280;36844;51.898;-0.874;2023-05-21T11:50:50;101085.84;;;19.28;
46015;BME280;36844;51.898;-0.874;2023-05-21T11:53:16;101087.78;;;19.27;
46015;BME280;36844;51.898;-0.874;2023-05-21T11:55:41;101085.47;;;19.29;
46015;BME280;36844;51.898;-0.874;2023-05-21T11:58:08;101077.34;;;19.29;
46015;BME280;36844;51.898;-0.874;2023-05-21T12:00:37;101083.50;;;19.30;
46015;BME280;36844;51.898;-0.874;2023-05-21T12:03:04;101084.28;;;19.30;
46015;BME280;36844;51.898;-0.874;2023-05-21T12:05:30;101083.16;;;19.31;
46015;BME280;36844;51.898;-0.874;2023-05-21T12:08:07;101083.16;;;19.31;
46015;BME280;36844;51.898;-0.874;2023-05-21T12:10:32;101084.66;;;19.32;
46015;BME280;36844;51.898;-0.874;2023-05-21T12:12:58;101073.88;;;19.32;
46015;BME280;36844;51.898;-0.874;2023-05-21T12:15:23;101080.81;;;19.33;
46015;BME280;36844;51.898;-0.874;2023-05-21T12:17:49;101080.81;;;19.33;
46015;BME280;36844;51.898;-0.874;2023-05-21T12:20:16;101078.09;;;19.33;
46015;BME280;36844;51.898;-0.874;2023-05-21T12:22:41;101076.19;;;19.34;
46015;BME280;36844;51.898;-0.874;2023-05-21T12:25:10;101066.16;;;19.34;
46015;BME280;36844;51.898;-0.874;2023-05-21T12:27:36;101070.00;;;19.33;
46015;BME280;36844;51.898;-0.874;2023-05-21T12:30:01;101073.09;;;19.35;
46015;BME280;36844;51.898;-0.874;2023-05-21T12:32:27;101062.31;;;19.35;
46015;BME280;36844;51.898;-0.874;2023-05-21T12:34:53;101068.44;;;19.36;
46015;BME280;36844;51.898;-0.874;2023-05-21T12:39:50;101053.41;;;19.35;
46015;BME280;36844;51.898;-0.874;2023-05-21T12:42:22;101055.34;;;19.34;
46015;BME280;36844;51.898;-0.874;2023-05-21T12:44:48;101053.41;;;19.35;
46015;BME280;36844;51.898;-0.874;2023-05-21T12:47:13;101048.78;;;19.35;
46015;BME280;36844;51.898;-0.874;2023-05-21T12:49:39;101054.19;;;19.35;
46015;BME280;36844;51.898;-0.874;2023-05-21T12:52:09;101060.34;;;19.36;
46015;BME280;36844;51.898;-0.874;2023-05-21T12:54:35;101063.06;;;19.36;
46015;BME280;36844;51.898;-0.874;2023-05-21T12:57:12;101054.94;;;19.36;
46015;BME280;36844;51.898;-0.874;2023-05-21T13:02:13;101049.53;;;19.36;
46015;BME280;36844;51.898;-0.874;2023-05-21T13:04:39;101040.25;;;19.37;
46015;BME280;36844;51.898;-0.874;2023-05-21T13:07:04;101037.56;;;19.37;
46015;BME280;36844;51.898;-0.874;2023-05-21T13:09:29;101046.44;;;19.37;
46015;BME280;36844;51.898;-0.874;2023-05-21T13:11:55;101038.34;;;19.37;
46015;BME280;36844;51.898;-0.874;2023-05-21T13:14:20;101036.81;;;19.36;
46015;BME280;36844;51.898;-0.874;2023-05-21T13:16:45;101024.06;;;19.37;
46015;BME280;36844;51.898;-0.874;2023-05-21T13:19:11;101030.25;;;19.37;
46015;BME280;36844;51.898;-0.874;2023-05-21T13:21:36;101027.53;;;19.37;
46015;BME280;36844;51.898;-0.874;2023-05-21T13:24:01;101032.94;;;19.37;
46015;BME280;36844;51.898;-0.874;2023-05-21T13:26:26;101032.94;;;19.37;
46015;BME280;36844;51.898;-0.874;2023-05-21T13:28:51;101025.63;;;19.38;
46015;BME280;36844;51.898;-0.874;2023-05-21T13:31:17;101028.31;;;19.38;
46015;BME280;36844;51.898;-0.874;2023-05-21T13:33:42;101039.13;;;19.38;
46015;BME280;36844;51.898;-0.874;2023-05-21T13:36:07;101040.69;;;19.39;
46015;BME280;36844;51.898;-0.874;2023-05-21T13:38:32;101034.84;;;19.40;
46015;BME280;36844;51.898;-0.874;2023-05-21T13:40:58;101027.94;;;19.39;
46015;BME280;36844;51.898;-0.874;2023-05-21T13:43:23;101030.66;;;19.39;
46015;BME280;36844;51.898;-0.874;2023-05-21T13:45:48;101027.94;;;19.39;
46015;BME280;36844;51.898;-0.874;2023-05-21T13:48:13;101041.47;;;19.39;
46015;BME280;36844;51.898;-0.874;2023-05-21T13:50:39;101029.88;;;19.39;
46015;BME280;36844;51.898;-0.874;2023-05-21T13:53:04;101032.56;;;19.39;
46015;BME280;36844;51.898;-0.874;2023-05-21T13:55:29;101022.13;;;19.37;
46015;BME280;36844;51.898;-0.874;2023-05-21T13:57:54;101035.63;;;19.37;
46015;BME280;36844;51.898;-0.874;2023-05-21T14:00:20;101030.25;;;19.37;